EW4692 Weather Reports


Display with metric or nautical units.
time (UTC)temp
F
wind
direction
speed
MPH
gust
MPH
rain 1hr
in
rain 24hr
in
rain mn
in
humidity
%
barometer
mb
20210227033706 49 0 7.0 13.0 0.00 0.00 0.00 75 1027.6
20210227033207 49 0 8.0 16.0 0.00 0.00 0.00 75 1027.5
20210227033104 48 360 7.0 13.0 0.00 0.00 0.00 75 1027.8
20210227032728 49 0 8.0 16.0 0.00 0.00 0.00 75 1027.5
20210227032209 49 0 8.0 16.0 0.00 0.00 0.00 75 1027.5
20210227031706 49 0 8.0 16.0 0.00 0.00 0.00 75 1027.6
20210227031531 48 360 7.0 16.0 0.00 0.00 0.00 75 1027.9
20210227031208 49 0 8.0 13.0 0.00 0.00 0.00 75 1027.6
20210227030712 49 0 8.0 13.0 0.00 0.00 0.00 75 1027.7
20210227030206 49 0 7.0 10.0 0.00 0.00 0.00 75 1027.7
20210227030122 48 360 7.0 13.0 0.00 0.00 0.00 75 1028.0
20210227025708 49 0 6.0 10.0 0.00 0.00 0.00 75 1027.8
20210227025320 49 0 5.0 10.0 0.00 0.00 0.00 75 1027.8
20210227024705 49 0 4.0 10.0 0.00 0.00 0.00 75 1027.9
20210227024523 48 360 3.0 9.0 0.00 0.00 0.00 75 1028.1
20210227024209 49 0 5.0 13.0 0.00 0.00 0.00 75 1027.8
20210227023706 49 0 5.0 13.0 0.00 0.00 0.00 75 1027.8
20210227023205 49 0 7.0 17.0 0.00 0.00 0.00 74 1027.8
20210227023029 49 360 6.0 13.0 0.00 0.00 0.00 74 1028.1
20210227022732 49 0 7.0 17.0 0.00 0.00 0.00 75 1027.8
20210227022207 49 0 8.0 17.0 0.00 0.00 0.00 74 1027.8
20210227021709 50 0 9.0 17.0 0.00 0.00 0.00 74 1027.8
20210227021551 49 360 8.0 14.0 0.00 0.00 0.00 75 1028.1
20210227021207 50 0 9.0 14.0 0.00 0.00 0.00 74 1027.8
20210227020707 50 0 9.0 14.0 0.00 0.00 0.00 74 1027.8
20210227020207 50 0 8.0 15.0 0.00 0.00 0.00 74 1027.9
20210227020033 49 360 7.0 14.0 0.00 0.00 0.00 74 1028.2
20210227015709 50 0 8.0 15.0 0.00 0.00 0.00 74 1027.9
20210227015313 50 0 9.0 15.0 0.00 0.00 0.00 74 1028.0
20210227014707 50 0 8.0 15.0 0.00 0.00 0.00 74 1028.0
20210227014531 49 360 8.0 15.0 0.00 0.00 0.00 74 1028.3
20210227014208 50 0 8.0 15.0 0.00 0.00 0.00 74 1028.0
20210227013706 50 0 8.0 15.0 0.00 0.00 0.00 74 1028.0
20210227013207 50 0 9.0 18.0 0.00 0.00 0.00 74 1028.0
20210227013024 49 360 6.0 16.0 0.00 0.00 0.00 74 1028.3
20210227012856 50 0 10.0 18.0 0.00 0.00 0.00 74 1028.0
20210227012210 50 0 11.0 18.0 0.00 0.00 0.00 74 1028.1
20210227011709 50 0 11.0 18.0 0.00 0.00 0.00 74 1028.1
20210227011535 50 360 10.0 19.0 0.00 0.00 0.00 74 1028.4
20210227011210 50 0 11.0 18.0 0.00 0.00 0.00 74 1028.2
20210227010707 50 0 11.0 18.0 0.00 0.00 0.00 74 1028.1
20210227010209 50 0 10.0 17.0 0.00 0.00 0.00 74 1028.2
20210227010041 50 360 9.0 15.0 0.00 0.00 0.00 74 1028.4
20210227005711 50 0 9.0 17.0 0.00 0.00 0.00 74 1028.1
20210227005354 50 0 9.0 18.0 0.00 0.00 0.00 74 1028.2
20210227004705 50 0 9.0 18.0 0.00 0.00 0.00 74 1028.2
20210227004541 50 360 7.0 16.0 0.00 0.00 0.00 74 1028.5
20210227004210 51 0 10.0 21.0 0.00 0.00 0.00 74 1028.2
20210227003706 51 0 11.0 21.0 0.00 0.00 0.00 74 1028.2
20210227003207 51 0 10.0 20.0 0.00 0.00 0.00 74 1028.3
20210227003041 50 360 9.0 19.0 0.00 0.00 0.00 74 1028.6
20210227002911 51 0 10.0 20.0 0.00 0.00 0.00 73 1028.3
20210227002211 51 0 10.0 20.0 0.00 0.00 0.00 74 1028.3
20210227001707 51 0 10.0 20.0 0.00 0.00 0.00 73 1028.4
20210227001526 50 360 10.0 20.0 0.00 0.00 0.00 73 1028.7
20210227001207 51 0 9.0 18.0 0.00 0.00 0.00 73 1028.3
20210227000719 51 0 8.0 18.0 0.00 0.00 0.00 73 1028.3
20210227000209 51 0 9.0 20.0 0.00 0.00 0.00 73 1028.4
20210227000042 50 360 7.0 17.0 0.00 0.00 0.00 73 1028.8
20210226235707 51 0 10.0 20.0 0.00 0.00 0.00 73 1028.5
20210226235206 51 0 12.0 21.0 0.00 0.00 0.00 73 1028.5
20210226234708 51 0 12.0 21.0 0.00 0.00 0.00 73 1028.4
20210226234523 50 360 12.0 20.0 0.00 0.00 0.00 73 1028.6
20210226234210 51 0 13.0 24.0 0.00 0.00 0.00 73 1028.3
20210226233708 51 0 14.0 24.0 0.00 0.00 0.00 73 1028.3
20210226233210 51 0 16.0 25.0 0.00 0.00 0.00 74 1028.4
20210226233112 50 360 14.0 26.0 0.00 0.00 0.00 74 1028.8
20210226232943 51 0 15.0 21.0 0.00 0.00 0.00 74 1028.4
20210226232209 51 0 13.0 21.0 0.00 0.00 0.00 74 1028.5
20210226231715 51 0 13.0 21.0 0.00 0.00 0.00 73 1028.5
20210226231616 50 360 12.0 21.0 0.00 0.00 0.00 73 1028.8
20210226231206 51 0 12.0 24.0 0.00 0.00 0.00 73 1028.4
20210226230706 51 0 12.0 24.0 0.00 0.00 0.00 73 1028.4
20210226230217 51 0 13.0 24.0 0.00 0.00 0.00 73 1028.4
20210226225707 51 0 12.0 24.0 0.00 0.00 0.00 73 1028.2
20210226225207 51 0 12.0 21.0 0.00 0.00 0.00 73 1028.2
20210226224706 51 0 11.0 21.0 0.00 0.00 0.00 73 1028.2
20210226224616 51 360 11.0 19.0 0.00 0.00 0.00 73 1028.4
20210226224207 51 0 12.0 21.0 0.00 0.00 0.00 73 1028.2
20210226223708 51 0 12.0 21.0 0.00 0.00 0.00 73 1028.3
20210226223215 51 0 11.0 20.0 0.00 0.00 0.00 73 1028.3
20210226223133 51 360 12.0 21.0 0.00 0.00 0.00 73 1028.6
20210226222928 51 0 11.0 20.0 0.00 0.00 0.00 73 1028.4
20210226222207 51 0 12.0 21.0 0.00 0.00 0.00 73 1028.4
20210226221710 51 0 11.0 21.0 0.00 0.00 0.00 73 1028.5
20210226221659 51 360 12.0 20.0 0.00 0.00 0.00 73 1028.8
20210226221207 51 0 11.0 20.0 0.00 0.00 0.00 73 1028.5
20210226220706 51 0 12.0 20.0 0.00 0.00 0.00 73 1028.5
20210226220206 51 0 11.0 23.0 0.00 0.00 0.00 73 1028.7
20210226220141 51 360 12.0 20.0 0.00 0.00 0.00 72 1029.0
20210226215706 51 0 11.0 23.0 0.00 0.00 0.00 72 1028.7
20210226215206 51 0 12.0 23.0 0.00 0.00 0.00 72 1028.7
20210226214842 51 360 11.0 23.0 0.00 0.00 0.00 72 1028.9
20210226214706 52 0 13.0 23.0 0.00 0.00 0.00 72 1028.7
20210226214209 51 0 11.0 20.0 0.00 0.00 0.00 72 1028.6
20210226213709 52 0 11.0 20.0 0.00 0.00 0.00 72 1028.6
20210226213207 52 0 11.0 23.0 0.00 0.00 0.00 72 1028.5
20210226213138 51 360 11.0 20.0 0.00 0.00 0.00 72 1028.8
20210226212912 52 0 12.0 23.0 0.00 0.00 0.00 72 1028.4
20210226212220 52 0 13.0 23.0 0.00 0.00 0.00 72 1028.5
20210226211710 51 360 12.0 23.0 0.00 0.00 0.00 72 1028.7
20210226211708 52 0 13.0 23.0 0.00 0.00 0.00 72 1028.4
20210226211207 52 0 13.0 24.0 0.00 0.00 0.00 72 1028.4
20210226210707 52 0 12.0 24.0 0.00 0.00 0.00 72 1028.4
20210226210208 52 0 12.0 21.0 0.00 0.00 0.00 72 1028.3
20210226210137 51 360 11.0 24.0 0.00 0.00 0.00 72 1028.6
20210226205706 52 0 11.0 21.0 0.00 0.00 0.00 72 1028.2
20210226205206 52 0 12.0 19.0 0.00 0.00 0.00 71 1028.2
20210226204707 52 0 12.0 19.0 0.00 0.00 0.00 71 1028.3
20210226204208 52 0 12.0 20.0 0.00 0.00 0.00 71 1028.2
20210226203713 52 0 12.0 20.0 0.00 0.00 0.00 71 1028.2
20210226203240 52 0 12.0 19.0 0.00 0.00 0.00 71 1028.2
20210226203201 51 360 10.0 19.0 0.00 0.00 0.00 71 1028.5
20210226202711 52 0 11.0 19.0 0.00 0.00 0.00 71 1028.1
20210226202206 52 0 10.0 19.0 0.00 0.00 0.00 71 1028.1
20210226201716 52 0 9.0 19.0 0.00 0.00 0.00 71 1028.2
20210226201630 52 360 8.0 19.0 0.00 0.00 0.00 71 1028.4
20210226201207 52 0 9.0 17.0 0.00 0.00 0.00 70 1028.0
20210226200705 52 0 10.0 17.0 0.00 0.00 0.00 70 1028.0
20210226200206 52 0 9.0 21.0 0.00 0.00 0.00 70 1028.0
20210226200121 52 360 10.0 16.0 0.00 0.00 0.00 70 1028.3
20210226195706 52 0 9.0 21.0 0.00 0.00 0.00 70 1027.9
20210226195207 53 0 10.0 22.0 0.00 0.00 0.00 70 1027.8
20210226194707 53 0 12.0 22.0 0.00 0.00 0.00 69 1027.8
20210226194640 52 360 11.0 21.0 0.00 0.00 0.00 69 1028.2
20210226194209 53 0 12.0 22.0 0.00 0.00 0.00 69 1027.9
20210226193710 53 0 12.0 22.0 0.00 0.00 0.00 68 1027.8
20210226193357 53 0 12.0 24.0 0.00 0.00 0.00 68 1027.7
20210226192706 53 0 13.0 24.0 0.00 0.00 0.00 68 1027.7
20210226192210 53 0 14.0 23.0 0.00 0.00 0.00 67 1027.7
20210226191710 54 0 14.0 23.0 0.00 0.00 0.00 67 1027.7
20210226191642 53 360 13.0 23.0 0.00 0.00 0.00 67 1028.0
20210226191208 54 0 14.0 21.0 0.00 0.00 0.00 67 1027.7
20210226190705 54 0 14.0 21.0 0.00 0.00 0.00 67 1027.6
20210226190215 54 0 14.0 22.0 0.00 0.00 0.00 66 1027.7
20210226190106 54 360 14.0 22.0 0.00 0.00 0.00 66 1028.0
20210226185706 54 0 13.0 22.0 0.00 0.00 0.00 66 1027.7
20210226185307 54 0 13.0 22.0 0.00 0.00 0.00 66 1027.7
20210226184710 55 0 14.0 22.0 0.00 0.00 0.00 66 1027.6
20210226184616 54 360 13.0 22.0 0.00 0.00 0.00 66 1027.9
20210226184207 55 0 14.0 20.0 0.00 0.00 0.00 66 1027.6
20210226183708 55 0 13.0 20.0 0.00 0.00 0.00 65 1027.5
20210226183206 55 0 12.0 21.0 0.00 0.00 0.00 65 1027.5
20210226183140 55 360 13.0 18.0 0.00 0.00 0.00 65 1027.8
20210226182853 55 0 13.0 21.0 0.00 0.00 0.00 65 1027.5
20210226182209 56 0 13.0 21.0 0.00 0.00 0.00 64 1027.4
20210226181709 56 0 13.0 21.0 0.00 0.00 0.00 64 1027.4
20210226181626 55 360 10.0 21.0 0.00 0.00 0.00 64 1027.7
20210226181207 56 0 13.0 20.0 0.00 0.00 0.00 63 1027.3
20210226180707 57 0 11.0 20.0 0.00 0.00 0.00 63 1027.3
20210226180209 57 0 10.0 19.0 0.00 0.00 0.00 62 1027.3
20210226180119 56 360 10.0 20.0 0.00 0.00 0.00 61 1027.7
20210226175707 57 0 11.0 19.0 0.00 0.00 0.00 61 1027.3
20210226175207 57 0 11.0 19.0 0.00 0.00 0.00 60 1027.2
20210226174710 58 0 11.0 19.0 0.00 0.00 0.00 60 1027.3
20210226174622 57 360 10.0 18.0 0.00 0.00 0.00 60 1027.6
20210226174206 58 0 11.0 23.0 0.00 0.00 0.00 59 1027.2
20210226173706 58 0 12.0 23.0 0.00 0.00 0.00 59 1027.1
20210226173213 58 0 12.0 22.0 0.00 0.00 0.00 59 1027.1
20210226173155 58 360 12.0 23.0 0.00 0.00 0.00 59 1027.4
20210226172929 59 0 12.0 19.0 0.00 0.00 0.00 59 1027.0
20210226172216 59 0 12.0 19.0 0.00 0.00 0.00 58 1027.0
20210226171706 59 0 12.0 20.0 0.00 0.00 0.00 58 1027.0
20210226171604 59 360 11.0 19.0 0.00 0.00 0.00 58 1027.4
20210226171206 60 0 12.0 24.0 0.00 0.00 0.00 58 1027.0
20210226170706 60 0 12.0 24.0 0.00 0.00 0.00 58 1026.9
20210226170213 60 0 13.0 24.0 0.00 0.00 0.00 57 1026.9
20210226170149 60 360 11.0 20.0 0.00 0.00 0.00 57 1027.2
20210226165711 60 0 14.0 24.0 0.00 0.00 0.00 57 1026.9
20210226165256 60 0 13.0 20.0 0.00 0.00 0.00 57 1026.9
20210226164727 60 0 12.0 20.0 0.00 0.00 0.00 57 1026.8
20210226164624 60 360 11.0 19.0 0.00 0.00 0.00 57 1027.1
20210226164206 61 0 12.0 25.0 0.00 0.00 0.00 57 1026.8
20210226163705 61 0 12.0 25.0 0.00 0.00 0.00 56 1026.8
20210226163208 61 0 12.0 21.0 0.00 0.00 0.00 56 1026.8
20210226163136 60 360 12.0 25.0 0.00 0.00 0.00 56 1027.2
20210226162804 61 0 12.0 21.0 0.00 0.00 0.00 56 1026.8
20210226162210 62 0 13.0 25.0 0.00 0.00 0.00 55 1026.9
20210226161708 62 0 13.0 25.0 0.00 0.00 0.00 55 1026.9
20210226161621 62 360 11.0 21.0 0.00 0.00 0.00 54 1027.3
20210226161208 62 0 14.0 24.0 0.00 0.00 0.00 54 1026.9
20210226160708 63 0 14.0 24.0 0.00 0.00 0.00 53 1027.0
20210226160210 63 0 14.0 22.0 0.00 0.00 0.00 53 1026.9
20210226160102 63 245 14.0 24.0 0.00 0.00 0.00 53 1027.3
20210226155709 63 297 12.0 22.0 0.00 0.00 0.00 53 1027.0
20210226155316 64 266 12.0 22.0 0.00 0.00 0.00 53 1026.9
20210226154709 64 316 13.0 22.0 0.00 0.00 0.00 52 1026.9
20210226154611 63 282 12.0 22.0 0.00 0.00 0.00 52 1027.3
20210226154212 64 320 12.0 22.0 0.00 0.00 0.00 52 1026.9
20210226153706 64 282 12.0 22.0 0.00 0.00 0.00 52 1026.9
20210226153210 64 281 13.0 20.0 0.00 0.00 0.00 51 1026.9
20210226153121 64 265 15.0 22.0 0.00 0.00 0.00 51 1027.3
20210226152812 65 284 11.0 20.0 0.00 0.00 0.00 51 1027.0
20210226152208 65 292 10.0 25.0 0.00 0.00 0.00 51 1027.1
20210226151706 65 288 10.0 25.0 0.00 0.00 0.00 51 1027.0
20210226151604 65 302 10.0 18.0 0.00 0.00 0.00 51 1027.4
20210226151211 65 284 11.0 21.0 0.00 0.00 0.00 51 1027.1
20210226150717 65 298 12.0 21.0 0.00 0.00 0.00 51 1027.1
20210226150210 65 313 13.0 19.0 0.00 0.00 0.00 50 1027.1
20210226150107 65 308 11.0 21.0 0.00 0.00 0.00 50 1027.5
20210226145709 65 283 12.0 19.0 0.00 0.00 0.00 49 1027.1
20210226145331 66 262 11.0 20.0 0.00 0.00 0.00 49 1027.2
20210226144710 66 297 10.0 20.0 0.00 0.00 0.00 49 1027.2
20210226144541 66 227 9.0 19.0 0.00 0.00 0.00 49 1027.5
20210226144207 66 297 12.0 20.0 0.00 0.00 0.00 49 1027.2
20210226143709 66 290 12.0 20.0 0.00 0.00 0.00 49 1027.3
20210226143208 66 306 11.0 20.0 0.00 0.00 0.00 49 1027.3
20210226143131 65 315 12.0 20.0 0.00 0.00 0.00 49 1027.7
20210226142909 66 271 10.0 20.0 0.00 0.00 0.00 49 1027.4
20210226142206 66 273 11.0 20.0 0.00 0.00 0.00 50 1027.4
20210226141712 66 279 11.0 20.0 0.00 0.00 0.00 50 1027.6
20210226141543 65 281 10.0 21.0 0.00 0.00 0.00 50 1027.9
20210226141206 66 301 11.0 16.0 0.00 0.00 0.00 49 1027.6
20210226140705 66 305 10.0 16.0 0.00 0.00 0.00 49 1027.7
20210226140207 66 302 10.0 19.0 0.00 0.00 0.00 49 1027.8
20210226140111 66 281 10.0 16.0 0.00 0.00 0.00 49 1028.0
20210226135709 66 273 10.0 19.0 0.00 0.00 0.00 50 1027.8
20210226135315 66 292 9.0 19.0 0.00 0.00 0.00 49 1027.8
20210226134707 66 279 10.0 19.0 0.00 0.00 0.00 49 1027.9
20210226134534 66 282 9.0 19.0 0.00 0.00 0.00 50 1028.3
20210226134207 66 296 11.0 17.0 0.00 0.00 0.00 49 1028.0
20210226133707 66 271 9.0 17.0 0.00 0.00 0.00 48 1028.0
20210226133207 67 277 9.0 17.0 0.00 0.00 0.00 48 1028.1
20210226133107 66 288 7.0 17.0 0.00 0.00 0.00 48 1028.4
20210226132723 67 241 9.0 17.0 0.00 0.00 0.00 48 1028.2
20210226132208 67 281 9.0 18.0 0.00 0.00 0.00 49 1028.2
20210226131709 67 285 10.0 18.0 0.00 0.00 0.00 47 1028.2
20210226131531 66 269 12.0 18.0 0.00 0.00 0.00 47 1028.6
20210226131207 67 248 10.0 17.0 0.00 0.00 0.00 48 1028.3
20210226130707 67 270 9.0 17.0 0.00 0.00 0.00 48 1028.4
20210226130207 66 294 9.0 16.0 0.00 0.00 0.00 49 1028.4
20210226130039 66 306 6.0 17.0 0.00 0.00 0.00 48 1028.8
20210226125714 66 306 9.0 16.0 0.00 0.00 0.00 47 1028.5
20210226125421 66 280 9.0 18.0 0.00 0.00 0.00 48 1028.5
20210226124708 66 314 9.0 18.0 0.00 0.00 0.00 47 1028.7
20210226124554 66 288 9.0 18.0 0.00 0.00 0.00 46 1029.0
20210226124210 66 285 8.0 16.0 0.00 0.00 0.00 49 1028.7
20210226123713 66 299 8.0 16.0 0.00 0.00 0.00 52 1028.8
20210226123209 66 254 9.0 17.0 0.00 0.00 0.00 52 1028.8
20210226123024 65 295 8.0 16.0 0.00 0.00 0.00 51 1029.2
20210226122801 66 267 9.0 17.0 0.00 0.00 0.00 50 1028.9
20210226122207 65 301 9.0 18.0 0.00 0.00 0.00 53 1029.0
20210226121712 65 281 9.0 18.0 0.00 0.00 0.00 51 1029.1
20210226121526 65 286 10.0 17.0 0.00 0.00 0.00 52 1029.5
20210226121210 65 269 9.0 16.0 0.00 0.00 0.00 53 1029.2
20210226120716 65 305 8.0 16.0 0.00 0.00 0.00 53 1029.3
20210226120206 65 288 8.0 16.0 0.00 0.00 0.00 53 1029.3
20210226120034 65 296 4.0 17.0 0.00 0.00 0.00 54 1029.7
20210226115708 65 277 9.0 16.0 0.00 0.00 0.00 54 1029.4
20210226115401 65 248 8.0 14.0 0.00 0.00 0.00 54 1029.5
20210226114713 65 299 7.0 14.0 0.00 0.00 0.00 55 1029.5
20210226114524 64 313 7.0 14.0 0.00 0.00 0.00 56 1029.9
20210226114207 64 276 8.0 20.0 0.00 0.00 0.00 57 1029.7
20210226113708 63 290 9.0 20.0 0.00 0.00 0.00 59 1029.8
20210226113206 63 303 10.0 20.0 0.00 0.00 0.00 58 1029.8
20210226113032 63 288 9.0 20.0 0.00 0.00 0.00 58 1030.1
20210226112918 63 290 10.0 18.0 0.00 0.00 0.00 57 1029.8
20210226112208 63 289 10.0 18.0 0.00 0.00 0.00 59 1029.9
20210226111707 62 306 10.0 16.0 0.00 0.00 0.00 60 1029.9
20210226111542 62 294 11.0 18.0 0.00 0.00 0.00 60 1030.2
20210226111214 62 308 9.0 18.0 0.00 0.00 0.00 61 1030.0
20210226110706 62 0 9.0 18.0 0.00 0.00 0.00 60 1030.0
20210226110209 62 292 9.0 16.0 0.00 0.00 0.00 61 1030.1
20210226110017 62 341 8.0 18.0 0.00 0.00 0.00 61 1030.3
20210226105715 62 266 10.0 16.0 0.00 0.00 0.00 61 1030.0
20210226105206 62 288 10.0 17.0 0.00 0.00 0.00 60 1030.1
20210226104706 62 267 9.0 17.0 0.00 0.00 0.00 61 1030.1
20210226104520 62 301 11.0 18.0 0.00 0.00 0.00 61 1030.3
20210226104210 62 288 10.0 17.0 0.00 0.00 0.00 62 1030.1
20210226103718 62 291 10.0 17.0 0.00 0.00 0.00 61 1030.2
20210226103210 62 286 8.0 15.0 0.00 0.00 0.00 62 1030.2
20210226103058 61 313 9.0 14.0 0.00 0.00 0.00 62 1030.5
20210226102947 62 284 8.0 15.0 0.00 0.00 0.00 62 1030.2
20210226102207 62 281 7.0 15.0 0.00 0.00 0.00 64 1030.2
20210226101726 60 314 6.0 15.0 0.00 0.00 0.00 63 1030.5
20210226101714 61 0 8.0 15.0 0.00 0.00 0.00 63 1030.2
20210226101211 60 307 8.0 18.0 0.00 0.00 0.00 64 1030.2
20210226100708 60 332 8.0 18.0 0.00 0.00 0.00 65 1030.2
20210226100223 59 291 8.0 17.0 0.00 0.00 0.00 65 1030.5
20210226100206 59 301 10.0 18.0 0.00 0.00 0.00 65 1030.3
20210226095745 59 302 9.0 18.0 0.00 0.00 0.00 65 1030.3
20210226095208 58 315 9.0 16.0 0.00 0.00 0.00 67 1030.3
20210226094706 58 263 10.0 16.0 0.00 0.00 0.00 67 1030.3
20210226094640 57 277 9.0 16.0 0.00 0.00 0.00 67 1030.6
20210226094208 57 304 9.0 15.0 0.00 0.00 0.00 67 1030.3
20210226093709 57 271 8.0 15.0 0.00 0.00 0.00 69 1030.3
20210226093220 56 289 8.0 16.0 0.00 0.00 0.00 69 1030.4
20210226093132 56 254 7.0 15.0 0.00 0.00 0.00 69 1030.7
20210226092953 56 0 8.0 16.0 0.00 0.00 0.00 69 1030.5
20210226092207 56 268 8.0 16.0 0.00 0.00 0.00 70 1030.5
20210226091717 55 0 9.0 16.0 0.00 0.00 0.00 71 1030.5
20210226091608 55 360 7.0 16.0 0.00 0.00 0.00 71 1030.8
20210226091207 55 0 9.0 16.0 0.00 0.00 0.00 71 1030.5
20210226090710 55 0 9.0 16.0 0.00 0.00 0.00 71 1030.6
20210226090209 54 0 9.0 16.0 0.00 0.00 0.00 72 1030.6
20210226090102 54 360 8.0 16.0 0.00 0.00 0.00 72 1030.9
20210226085707 54 0 9.0 16.0 0.00 0.00 0.00 72 1030.6
20210226085337 54 0 8.0 16.0 0.00 0.00 0.00 72 1030.6
20210226084706 53 0 8.0 16.0 0.00 0.00 0.00 73 1030.6
20210226084642 53 360 7.0 16.0 0.00 0.00 0.00 72 1030.9
20210226084209 53 0 9.0 14.0 0.00 0.00 0.00 73 1030.6
20210226083706 53 0 8.0 14.0 0.00 0.00 0.00 73 1030.7
20210226083213 52 0 7.0 16.0 0.00 0.00 0.00 74 1030.6
20210226083126 52 360 6.0 14.0 0.00 0.00 0.00 74 1030.9
20210226082800 52 0 8.0 16.0 0.00 0.00 0.00 74 1030.6
20210226082207 52 0 8.0 13.0 0.00 0.00 0.00 75 1030.6
20210226081706 51 0 7.0 13.0 0.00 0.00 0.00 75 1030.5
20210226081534 51 360 5.0 13.0 0.00 0.00 0.00 75 1030.8
20210226081206 51 0 7.0 15.0 0.00 0.00 0.00 75 1030.5
20210226080707 51 0 6.0 15.0 0.00 0.00 0.00 75 1030.5
20210226080209 51 0 7.0 15.0 0.00 0.00 0.00 75 1030.5
20210226080109 51 360 6.0 13.0 0.00 0.00 0.00 75 1030.7
20210226075706 51 0 7.0 15.0 0.00 0.00 0.00 76 1030.5
20210226075339 51 0 8.0 18.0 0.00 0.00 0.00 76 1030.4
20210226074728 51 0 10.0 18.0 0.00 0.00 0.00 76 1030.4
20210226074530 50 360 8.0 15.0 0.00 0.00 0.00 76 1030.5
20210226074206 51 0 11.0 18.0 0.00 0.00 0.00 76 1030.3
20210226073713 50 0 11.0 18.0 0.00 0.00 0.00 76 1030.3
20210226073212 50 0 11.0 20.0 0.00 0.00 0.00 76 1030.2
20210226073034 50 360 10.0 18.0 0.00 0.00 0.00 76 1030.5
20210226072845 50 0 11.0 20.0 0.00 0.00 0.00 77 1030.3
20210226072207 50 0 11.0 20.0 0.00 0.00 0.00 77 1030.3
20210226071705 50 0 12.0 20.0 0.00 0.00 0.00 77 1030.2
20210226071538 49 360 10.0 21.0 0.00 0.00 0.00 77 1030.5
20210226071206 50 0 13.0 17.0 0.00 0.00 0.00 77 1030.2
20210226070707 50 0 10.0 17.0 0.00 0.00 0.00 77 1030.2
20210226070207 50 0 9.0 17.0 0.00 0.00 0.00 77 1030.1
20210226070031 50 360 8.0 17.0 0.00 0.00 0.00 77 1030.3
20210226065707 50 0 9.0 17.0 0.00 0.00 0.00 77 1030.1
20210226065209 50 0 9.0 16.0 0.00 0.00 0.00 77 1030.0
20210226064711 50 0 9.0 16.0 0.00 0.00 0.00 77 1030.1
20210226064529 50 360 10.0 16.0 0.00 0.00 0.00 77 1030.3
20210226064207 50 0 8.0 17.0 0.00 0.00 0.00 77 1030.1
20210226063706 51 0 9.0 17.0 0.00 0.00 0.00 77 1030.0
20210226063210 51 0 9.0 16.0 0.00 0.00 0.00 77 1030.1
20210226063027 50 360 8.0 16.0 0.00 0.00 0.00 77 1030.3
20210226062929 51 0 8.0 15.0 0.00 0.00 0.00 77 1029.9
20210226062207 51 0 8.0 15.0 0.00 0.00 0.00 77 1029.9
20210226061712 51 0 7.0 15.0 0.00 0.00 0.00 77 1029.9
20210226061548 50 360 8.0 15.0 0.00 0.00 0.00 77 1030.2
20210226061206 51 0 8.0 14.0 0.00 0.00 0.00 77 1030.0
20210226060705 51 0 9.0 14.0 0.00 0.00 0.00 77 1030.0
20210226060218 51 0 8.0 14.0 0.00 0.00 0.00 77 1030.0
20210226060101 50 360 7.0 14.0 0.00 0.00 0.00 77 1030.3
20210226055710 51 0 8.0 13.0 0.00 0.00 0.00 77 1030.0
20210226055339 51 0 6.0 13.0 0.00 0.00 0.00 77 1030.1
20210226054706 51 0 5.0 9.0 0.00 0.00 0.00 77 1030.1
20210226054649 50 360 6.0 11.0 0.00 0.00 0.00 77 1030.3
20210226054211 51 0 4.0 9.0 0.00 0.00 0.00 77 1030.2
20210226053706 51 0 3.0 11.0 0.00 0.00 0.00 77 1030.2
20210226053214 51 360 0.0 9.0 0.00 0.00 0.00 78 1030.5
20210226053207 51 0 3.0 11.0 0.00 0.00 0.00 77 1030.2
20210226052843 51 0 4.0 11.0 0.00 0.00 0.00 77 1030.2
20210226052209 51 0 4.0 11.0 0.00 0.00 0.00 78 1030.3
20210226051713 51 0 4.0 11.0 0.00 0.00 0.00 78 1030.3
20210226051645 51 360 3.0 11.0 0.00 0.00 0.00 78 1030.6
20210226051207 51 0 4.0 11.0 0.00 0.00 0.00 78 1030.3
20210226050707 52 0 5.0 11.0 0.00 0.00 0.00 78 1030.3
20210226050208 52 0 5.0 11.0 0.00 0.00 0.00 78 1030.3
20210226050144 51 360 5.0 11.0 0.00 0.00 0.00 78 1030.7
20210226045706 52 0 3.0 4.0 0.00 0.00 0.00 78 1030.4
20210226045314 52 0 1.0 4.0 0.00 0.00 0.00 78 1030.4
20210226044709 52 0 1.0 4.0 0.00 0.00 0.00 78 1030.4
20210226044647 52 360 0.0 4.0 0.00 0.00 0.00 78 1030.7
20210226044211 52 0 1.0 0.0 0.00 0.00 0.00 78 1030.4
20210226043712 52 0 0.0 0.0 0.00 0.00 0.00 79 1030.4
20210226043210 52 0 0.0 0.0 0.00 0.00 0.00 79 1030.4
20210226043148 52 360 0.0 0.0 0.00 0.00 0.00 78 1030.6
20210226042835 52 0 0.0 0.0 0.00 0.00 0.00 78 1030.4
20210226042208 52 0 0.0 0.0 0.00 0.00 0.00 78 1030.4
20210226041721 52 360 0.0 0.0 0.00 0.00 0.00 79 1030.7
20210226041706 52 0 0.0 0.0 0.00 0.00 0.00 78 1030.4
20210226041206 52 0 0.0 0.0 0.00 0.00 0.00 78 1030.4
20210226040706 52 0 0.0 0.0 0.00 0.00 0.00 78 1030.4
20210226040206 52 0 0.0 0.0 0.00 0.00 0.00 78 1030.4
20210226040128 52 360 0.0 0.0 0.00 0.00 0.00 78 1030.7
20210226035706 52 0 0.0 0.0 0.00 0.00 0.00 78 1030.4
20210226035209 52 0 0.0 0.0 0.00 0.00 0.00 78 1030.5
20210226034710 52 0 0.0 0.0 0.00 0.00 0.00 78 1030.4
20210226034635 51 360 0.0 0.0 0.00 0.00 0.00 78 1030.7
20210226034208 52 0 0.0 0.0 0.00 0.00 0.00 78 1030.5